Time;durP1;ratioP1;P1;durP2;ratioP2;P2;SDS_P1;SDS_P2;PMS_P1;PMS_P2;Temp;Humidity;BMP_temperature;BMP_pressure;BME280_temperature;BME280_humidity;BME280_pressure;Samples;Min_cycle;Max_cycle;Signal;HPM_P1;HPM_P2
2022/01/29 00:01:36;;;;;;;20.27;8.77;;;;;;;;;;4967017;28;20046;-76
2022/01/29 00:04:02;;;;;;;23.20;9.30;;;;;;;;;;4967487;28;20031;-74
2022/01/29 00:06:28;;;;;;;20.30;9.32;;;;;;;;;;4965384;28;20054;-74
2022/01/29 00:08:56;;;;;;;20.45;8.45;;;;;;;;;;4965786;28;20126;-74
2022/01/29 00:11:28;;;;;;;17.23;8.48;;;;;;;;;;4964402;28;20633;-75
2022/01/29 00:13:53;;;;;;;20.27;9.00;;;;;;;;;;4966307;28;20039;-76
2022/01/29 00:16:19;;;;;;;18.33;8.73;;;;;;;;;;4965617;28;20031;-75
2022/01/29 00:18:45;;;;;;;19.92;8.07;;;;;;;;;;4955679;28;20039;-76
2022/01/29 00:21:11;;;;;;;19.90;8.63;;;;;;;;;;4918927;29;20560;-75
2022/01/29 00:23:37;;;;;;;17.23;8.30;;;;;;;;;;4905865;29;20040;-74
2022/01/29 00:26:03;;;;;;;24.08;10.80;;;;;;;;;;4919232;29;20083;-74
2022/01/29 00:28:32;;;;;;;19.83;9.60;;;;;;;;;;4927297;29;20047;-76
2022/01/29 00:30:58;;;;;;;18.15;8.05;;;;;;;;;;4925308;29;20671;-76
2022/01/29 00:33:24;;;;;;;21.20;8.15;;;;;;;;;;4926685;29;20086;-76
2022/01/29 00:35:50;;;;;;;19.70;7.90;;;;;;;;;;4926923;29;20056;-73
2022/01/29 00:38:15;;;;;;;20.65;8.82;;;;;;;;;;4943368;28;20055;-77
2022/01/29 00:40:43;;;;;;;21.05;8.75;;;;;;;;;;4943593;28;20082;-76
2022/01/29 00:43:09;;;;;;;16.67;8.43;;;;;;;;;;4943054;28;20043;-76
2022/01/29 00:45:35;;;;;;;17.17;7.80;;;;;;;;;;4949754;28;20322;-76
2022/01/29 00:48:02;;;;;;;18.17;8.68;;;;;;;;;;4956665;28;20047;-74
2022/01/29 00:50:29;;;;;;;17.95;8.32;;;;;;;;;;4939796;28;20071;-74
2022/01/29 00:52:54;;;;;;;19.23;8.07;;;;;;;;;;4923671;29;20055;-74
2022/01/29 00:55:20;;;;;;;15.80;7.63;;;;;;;;;;4932954;28;20047;-74
2022/01/29 00:57:46;;;;;;;19.02;8.77;;;;;;;;;;4925486;29;20043;-74
2022/01/29 01:00:14;;;;;;;18.67;8.65;;;;;;;;;;4939661;28;20051;-74
2022/01/29 01:02:41;;;;;;;16.48;8.20;;;;;;;;;;4947056;28;20043;-74
2022/01/29 01:05:10;;;;;;;17.00;8.85;;;;;;;;;;4942849;29;20031;-75
2022/01/29 01:07:36;;;;;;;18.92;7.75;;;;;;;;;;4948053;29;20043;-75
2022/01/29 01:10:05;;;;;;;17.60;7.55;;;;;;;;;;4980256;28;20053;-74
2022/01/29 01:12:31;;;;;;;16.48;7.47;;;;;;;;;;4985700;28;20042;-75
2022/01/29 01:14:57;;;;;;;16.25;7.25;;;;;;;;;;4985657;28;20437;-75
2022/01/29 01:17:23;;;;;;;14.30;7.20;;;;;;;;;;4985749;28;20503;-76
2022/01/29 01:19:49;;;;;;;16.00;7.82;;;;;;;;;;4984674;28;20397;-75
2022/01/29 01:22:16;;;;;;;15.05;7.22;;;;;;;;;;4984658;28;20065;-76
2022/01/29 01:24:43;;;;;;;13.82;7.13;;;;;;;;;;4978440;28;20039;-75
2022/01/29 01:27:09;;;;;;;19.77;7.32;;;;;;;;;;4966037;28;20528;-74
2022/01/29 01:29:35;;;;;;;13.95;6.53;;;;;;;;;;4965076;28;20501;-74
2022/01/29 01:32:01;;;;;;;16.63;6.60;;;;;;;;;;4964532;28;20456;-74
2022/01/29 01:34:31;;;;;;;11.70;6.68;;;;;;;;;;4964311;28;20054;-74
2022/01/29 01:37:03;;;;;;;16.27;7.10;;;;;;;;;;4941528;28;20051;-74
2022/01/29 01:39:33;;;;;;;12.55;6.72;;;;;;;;;;4942451;28;20520;-77
2022/01/29 01:42:04;;;;;;;14.35;7.00;;;;;;;;;;4964909;28;20727;-75
2022/01/29 01:44:46;;;;;;;13.38;6.85;;;;;;;;;;4944368;28;20043;-74
2022/01/29 01:47:14;;;;;;;14.38;6.82;;;;;;;;;;4942330;28;20047;-74
2022/01/29 01:49:41;;;;;;;12.55;5.97;;;;;;;;;;4947534;28;20083;-76
2022/01/29 01:52:10;;;;;;;14.38;6.82;;;;;;;;;;4947713;28;20695;-74
2022/01/29 01:54:38;;;;;;;14.88;7.10;;;;;;;;;;4948093;28;20481;-75
2022/01/29 01:57:04;;;;;;;14.38;7.25;;;;;;;;;;4947633;28;20039;-75
2022/01/29 01:59:31;;;;;;;15.00;6.72;;;;;;;;;;4948157;28;20051;-75
2022/01/29 02:01:57;;;;;;;14.98;6.50;;;;;;;;;;4949321;28;20038;-74
2022/01/29 02:04:24;;;;;;;14.82;7.28;;;;;;;;;;4949322;28;20031;-74
2022/01/29 02:06:51;;;;;;;15.05;6.65;;;;;;;;;;4929783;28;20055;-74
2022/01/29 02:09:20;;;;;;;16.42;7.03;;;;;;;;;;4949314;28;20054;-76
2022/01/29 02:11:52;;;;;;;15.60;7.05;;;;;;;;;;4948639;28;20059;-75
2022/01/29 02:14:19;;;;;;;14.57;7.10;;;;;;;;;;4949662;28;20038;-76
2022/01/29 02:16:45;;;;;;;14.50;7.13;;;;;;;;;;4949326;28;20149;-75
2022/01/29 02:19:11;;;;;;;12.98;6.88;;;;;;;;;;4945275;28;20043;-75
2022/01/29 02:21:38;;;;;;;17.45;7.75;;;;;;;;;;4978474;28;20545;-74
2022/01/29 02:24:04;;;;;;;16.05;7.63;;;;;;;;;;4987511;28;20035;-74
2022/01/29 02:26:30;;;;;;;17.33;7.30;;;;;;;;;;4987517;28;20035;-75
2022/01/29 02:28:56;;;;;;;16.98;7.53;;;;;;;;;;4987869;28;20456;-74
2022/01/29 02:31:23;;;;;;;15.32;7.57;;;;;;;;;;4987137;28;20113;-75
2022/01/29 02:33:49;;;;;;;14.40;6.57;;;;;;;;;;4986459;28;20046;-75
2022/01/29 02:36:14;;;;;;;17.55;7.40;;;;;;;;;;4967504;28;21611;-75
2022/01/29 02:38:41;;;;;;;16.90;8.00;;;;;;;;;;4952005;28;20408;-75
2022/01/29 02:41:07;;;;;;;14.80;7.60;;;;;;;;;;4967438;28;20067;-75
2022/01/29 02:48:46;;;;;;;15.43;7.03;;;;;;;;;;5271460;23;20690;-79
2022/01/29 02:51:12;;;;;;;16.25;7.82;;;;;;;;;;4901700;29;20486;-80
2022/01/29 02:53:38;;;;;;;14.35;7.70;;;;;;;;;;4924633;29;20050;-80
2022/01/29 02:56:05;;;;;;;14.60;7.75;;;;;;;;;;4945663;28;20481;-80
2022/01/29 02:58:31;;;;;;;21.80;8.23;;;;;;;;;;4943992;28;20054;-79
2022/01/29 03:00:57;;;;;;;18.63;8.90;;;;;;;;;;4944734;28;20752;-79
2022/01/29 03:03:24;;;;;;;17.63;8.70;;;;;;;;;;4944258;29;20747;-79
2022/01/29 03:05:51;;;;;;;16.42;8.35;;;;;;;;;;4931231;29;20050;-79
2022/01/29 03:08:17;;;;;;;19.45;9.00;;;;;;;;;;4947300;28;20047;-79
2022/01/29 03:10:43;;;;;;;22.98;9.30;;;;;;;;;;4976395;28;20234;-80
2022/01/29 03:13:09;;;;;;;21.40;9.48;;;;;;;;;;4991508;28;20053;-79
2022/01/29 03:15:35;;;;;;;19.02;9.18;;;;;;;;;;4991412;28;20039;-81
2022/01/29 03:18:01;;;;;;;20.85;10.50;;;;;;;;;;4989623;28;20218;-79
2022/01/29 03:20:27;;;;;;;20.77;9.95;;;;;;;;;;5002979;28;20065;-79
2022/01/29 03:22:53;;;;;;;22.40;10.57;;;;;;;;;;5009695;28;20076;-79
2022/01/29 03:25:19;;;;;;;20.25;9.45;;;;;;;;;;5009424;28;20033;-79
2022/01/29 03:27:45;;;;;;;17.60;9.05;;;;;;;;;;5009335;28;20050;-79
2022/01/29 03:30:11;;;;;;;20.17;10.05;;;;;;;;;;5004427;28;20032;-81
2022/01/29 03:32:37;;;;;;;19.63;9.25;;;;;;;;;;5009849;28;20038;-81
2022/01/29 03:35:04;;;;;;;21.65;10.40;;;;;;;;;;5006019;28;20031;-81
2022/01/29 03:37:30;;;;;;;24.30;11.20;;;;;;;;;;4989509;28;20130;-80
2022/01/29 03:40:00;;;;;;;20.25;10.20;;;;;;;;;;4987160;28;20190;-80
2022/01/29 03:42:28;;;;;;;21.52;10.00;;;;;;;;;;4967565;28;20051;-82
2022/01/29 03:44:55;;;;;;;24.50;10.75;;;;;;;;;;4969335;28;20479;-81
2022/01/29 03:47:21;;;;;;;20.42;9.98;;;;;;;;;;4967767;28;20058;-81
2022/01/29 03:49:46;;;;;;;22.92;10.60;;;;;;;;;;4954033;28;20469;-81
2022/01/29 03:52:12;;;;;;;22.90;11.02;;;;;;;;;;4949849;28;20058;-81
2022/01/29 03:54:38;;;;;;;20.23;10.45;;;;;;;;;;4948516;28;20070;-81
2022/01/29 03:57:04;;;;;;;20.90;10.13;;;;;;;;;;4948492;28;20043;-81
2022/01/29 03:59:30;;;;;;;23.40;11.10;;;;;;;;;;4949306;28;20401;-81
2022/01/29 04:01:56;;;;;;;23.80;10.95;;;;;;;;;;4948528;28;20071;-81
2022/01/29 04:04:22;;;;;;;25.35;10.88;;;;;;;;;;4949753;28;20053;-81
2022/01/29 04:06:50;;;;;;;20.75;10.25;;;;;;;;;;4949934;28;20074;-81
2022/01/29 04:09:17;;;;;;;22.73;10.75;;;;;;;;;;4950320;28;20219;-81
2022/01/29 04:11:44;;;;;;;22.73;9.95;;;;;;;;;;4949067;28;20098;-81
2022/01/29 04:14:16;;;;;;;21.85;10.35;;;;;;;;;;4948535;28;20035;-81
2022/01/29 04:16:43;;;;;;;23.60;10.52;;;;;;;;;;4928101;28;20497;-81
2022/01/29 04:19:09;;;;;;;20.75;10.02;;;;;;;;;;4946206;28;20050;-81
2022/01/29 04:21:34;;;;;;;23.42;10.32;;;;;;;;;;4943458;28;20146;-81
2022/01/29 04:24:00;;;;;;;21.45;9.60;;;;;;;;;;4945189;28;20142;-81
2022/01/29 04:26:26;;;;;;;25.45;11.13;;;;;;;;;;4945442;28;20706;-81
2022/01/29 04:28:53;;;;;;;21.10;9.85;;;;;;;;;;4957952;28;20046;-81
2022/01/29 04:31:21;;;;;;;20.15;9.90;;;;;;;;;;4963677;28;20054;-81
2022/01/29 04:33:47;;;;;;;20.60;9.80;;;;;;;;;;4963697;28;20563;-81
2022/01/29 04:36:13;;;;;;;18.48;9.15;;;;;;;;;;4964209;28;20050;-81
2022/01/29 04:38:39;;;;;;;20.33;9.13;;;;;;;;;;4964390;28;20051;-81
2022/01/29 04:41:06;;;;;;;20.35;10.25;;;;;;;;;;4964033;28;20140;-81
2022/01/29 04:43:35;;;;;;;19.08;9.35;;;;;;;;;;4964012;28;20050;-81
2022/01/29 04:46:02;;;;;;;21.08;9.43;;;;;;;;;;4963980;28;20043;-81
2022/01/29 04:48:28;;;;;;;18.60;9.32;;;;;;;;;;4963781;28;20526;-81
2022/01/29 04:50:54;;;;;;;18.65;8.82;;;;;;;;;;4963975;28;20714;-81
2022/01/29 04:53:21;;;;;;;19.83;9.63;;;;;;;;;;4964642;28;20392;-81
2022/01/29 04:55:47;;;;;;;16.00;8.85;;;;;;;;;;4964670;28;20461;-81
2022/01/29 04:58:13;;;;;;;18.00;8.73;;;;;;;;;;4946205;28;20053;-81
2022/01/29 05:00:38;;;;;;;20.20;9.20;;;;;;;;;;4964934;28;20118;-81
2022/01/29 05:03:14;;;;;;;17.80;8.32;;;;;;;;;;4964573;28;20055;-82
2022/01/29 05:05:42;;;;;;;16.05;8.00;;;;;;;;;;4964872;28;20043;-81
2022/01/29 05:08:09;;;;;;;18.25;8.73;;;;;;;;;;4964618;28;20043;-81
2022/01/29 05:10:35;;;;;;;23.48;12.18;;;;;;;;;;4959334;28;20496;-81
2022/01/29 05:13:05;;;;;;;19.13;8.65;;;;;;;;;;4958956;28;20035;-81
2022/01/29 05:15:47;;;;;;;16.45;8.05;;;;;;;;;;4961786;28;20480;-81
2022/01/29 05:29:12;;;;;;;14.45;7.75;;;;;;;;;;4965498;28;20664;-81
2022/01/29 05:31:38;;;;;;;15.40;7.47;;;;;;;;;;4950113;28;20062;-81
2022/01/29 05:34:04;;;;;;;15.75;7.68;;;;;;;;;;4967376;28;20436;-81
2022/01/29 05:36:30;;;;;;;15.35;7.93;;;;;;;;;;4960048;28;20126;-81
2022/01/29 05:38:56;;;;;;;16.48;7.57;;;;;;;;;;4967340;28;20053;-81
2022/01/29 05:41:22;;;;;;;17.88;7.72;;;;;;;;;;4968312;28;20030;-79
2022/01/29 05:43:48;;;;;;;15.18;7.75;;;;;;;;;;4967474;28;20455;-80
2022/01/29 05:46:15;;;;;;;15.95;7.65;;;;;;;;;;4967168;28;20046;-79
2022/01/29 05:48:42;;;;;;;14.18;7.30;;;;;;;;;;4967263;28;20045;-80
2022/01/29 05:51:08;;;;;;;14.25;7.32;;;;;;;;;;4967350;28;20053;-80
2022/01/29 05:53:34;;;;;;;15.13;7.25;;;;;;;;;;4966758;28;20047;-79
2022/01/29 05:56:01;;;;;;;14.63;7.28;;;;;;;;;;4966626;28;20507;-80
2022/01/29 05:58:27;;;;;;;14.23;7.57;;;;;;;;;;4966485;28;20404;-80
2022/01/29 06:00:53;;;;;;;16.85;8.77;;;;;;;;;;4966251;28;20051;-80
2022/01/29 06:03:19;;;;;;;17.27;8.18;;;;;;;;;;4966451;28;20074;-80
2022/01/29 06:05:45;;;;;;;17.88;8.40;;;;;;;;;;4966447;28;20668;-81
2022/01/29 06:08:11;;;;;;;16.73;8.05;;;;;;;;;;4966959;28;20416;-80
2022/01/29 06:10:36;;;;;;;19.02;10.00;;;;;;;;;;4967512;28;20038;-81
2022/01/29 06:13:10;;;;;;;19.33;9.32;;;;;;;;;;4966799;28;20055;-80
2022/01/29 06:15:41;;;;;;;18.83;9.27;;;;;;;;;;4966565;28;20404;-80
2022/01/29 06:18:13;;;;;;;14.32;7.72;;;;;;;;;;4965634;28;20070;-80
2022/01/29 06:20:40;;;;;;;18.65;8.35;;;;;;;;;;4966372;28;20496;-80
2022/01/29 06:23:06;;;;;;;17.50;8.05;;;;;;;;;;4965879;28;20050;-81
2022/01/29 06:25:32;;;;;;;18.80;8.43;;;;;;;;;;4948920;28;20046;-80
2022/01/29 06:27:58;;;;;;;17.42;8.55;;;;;;;;;;4966595;28;20047;-80
2022/01/29 06:30:24;;;;;;;17.30;8.60;;;;;;;;;;4966612;28;20074;-80
2022/01/29 06:32:50;;;;;;;16.15;7.95;;;;;;;;;;4967256;28;20066;-80
2022/01/29 06:35:16;;;;;;;20.30;9.20;;;;;;;;;;4961037;28;20047;-80
2022/01/29 06:37:42;;;;;;;20.45;8.52;;;;;;;;;;4939261;28;20357;-80
2022/01/29 06:40:09;;;;;;;16.35;8.63;;;;;;;;;;4921220;29;20055;-80
2022/01/29 06:42:35;;;;;;;28.27;14.32;;;;;;;;;;4933582;29;20058;-80
2022/01/29 06:45:01;;;;;;;18.23;10.05;;;;;;;;;;4921772;29;20477;-80
2022/01/29 06:47:27;;;;;;;17.08;9.10;;;;;;;;;;4946678;29;20047;-80
2022/01/29 06:49:53;;;;;;;17.80;8.23;;;;;;;;;;4927950;29;20086;-80
2022/01/29 06:52:19;;;;;;;17.45;9.15;;;;;;;;;;4950371;28;20105;-80
2022/01/29 06:54:45;;;;;;;17.75;8.85;;;;;;;;;;4962577;28;20552;-80
2022/01/29 06:57:11;;;;;;;16.48;8.90;;;;;;;;;;4964358;28;20142;-81
2022/01/29 06:59:36;;;;;;;17.92;9.20;;;;;;;;;;4956452;28;20490;-80
2022/01/29 07:02:03;;;;;;;19.15;9.60;;;;;;;;;;4956873;28;20086;-80
2022/01/29 07:04:28;;;;;;;16.92;8.65;;;;;;;;;;4923183;29;20196;-80
2022/01/29 07:06:54;;;;;;;18.92;9.10;;;;;;;;;;4935316;28;20043;-80
2022/01/29 07:09:20;;;;;;;16.45;9.60;;;;;;;;;;4950987;28;20053;-80
2022/01/29 07:11:47;;;;;;;16.02;8.93;;;;;;;;;;4962329;28;20613;-79
2022/01/29 07:14:17;;;;;;;20.05;9.48;;;;;;;;;;4964427;28;20042;-80
2022/01/29 07:16:43;;;;;;;15.98;8.73;;;;;;;;;;4928134;28;20044;-80
2022/01/29 07:19:10;;;;;;;17.55;9.05;;;;;;;;;;4933499;28;20502;-80
2022/01/29 07:21:39;;;;;;;18.75;8.90;;;;;;;;;;4944503;28;20039;-80
2022/01/29 07:24:05;;;;;;;16.23;9.02;;;;;;;;;;4945821;28;20054;-80
2022/01/29 07:26:31;;;;;;;15.48;7.63;;;;;;;;;;4965967;28;20047;-80
2022/01/29 07:28:57;;;;;;;15.93;8.82;;;;;;;;;;4948427;28;20069;-80
2022/01/29 07:31:23;;;;;;;18.15;7.57;;;;;;;;;;4965118;28;20066;-80
2022/01/29 07:33:50;;;;;;;15.90;8.55;;;;;;;;;;4945833;29;20043;-81
2022/01/29 07:36:17;;;;;;;14.60;8.07;;;;;;;;;;4960524;28;20077;-80
2022/01/29 07:38:45;;;;;;;16.08;8.57;;;;;;;;;;4963718;28;20401;-81
2022/01/29 07:41:11;;;;;;;17.42;8.43;;;;;;;;;;4963983;28;20047;-79
2022/01/29 07:43:37;;;;;;;16.35;8.75;;;;;;;;;;4963268;28;20640;-80
2022/01/29 07:46:03;;;;;;;13.35;7.28;;;;;;;;;;4961229;28;20070;-80
2022/01/29 07:48:29;;;;;;;14.90;7.85;;;;;;;;;;4960764;28;20082;-76
2022/01/29 07:50:55;;;;;;;11.80;7.13;;;;;;;;;;4947744;28;20062;-75
2022/01/29 07:53:21;;;;;;;13.38;6.80;;;;;;;;;;4958272;28;20214;-80
2022/01/29 07:55:46;;;;;;;15.23;7.32;;;;;;;;;;4944165;28;20047;-87
2022/01/29 07:58:12;;;;;;;14.80;6.63;;;;;;;;;;4927389;29;20050;-88
2022/01/29 08:00:38;;;;;;;13.25;7.07;;;;;;;;;;4946646;28;20051;-90
2022/01/29 08:03:04;;;;;;;11.68;6.35;;;;;;;;;;4945409;28;20082;-87
2022/01/29 08:05:30;;;;;;;12.73;6.72;;;;;;;;;;4926145;29;20047;-88
2022/01/29 08:07:56;;;;;;;11.85;6.85;;;;;;;;;;4926334;29;20045;-87
2022/01/29 08:10:22;;;;;;;11.98;6.45;;;;;;;;;;4952313;28;20218;-78
2022/01/29 08:12:48;;;;;;;10.75;5.75;;;;;;;;;;4926349;28;20051;-81
2022/01/29 08:15:14;;;;;;;13.40;5.97;;;;;;;;;;4963235;28;20082;-78
2022/01/29 08:17:40;;;;;;;11.07;5.78;;;;;;;;;;4945603;28;20094;-88
2022/01/29 08:20:06;;;;;;;11.40;5.25;;;;;;;;;;4944276;28;20662;-79
2022/01/29 08:22:32;;;;;;;9.52;5.30;;;;;;;;;;4944825;28;20410;-78
2022/01/29 08:24:59;;;;;;;10.35;4.80;;;;;;;;;;4946393;28;20144;-78
2022/01/29 08:27:25;;;;;;;8.57;4.68;;;;;;;;;;4964288;28;20046;-79
2022/01/29 08:29:51;;;;;;;9.70;4.95;;;;;;;;;;4965284;28;20141;-81
2022/01/29 08:32:17;;;;;;;8.90;4.93;;;;;;;;;;4976080;28;20447;-78
2022/01/29 08:34:46;;;;;;;9.10;4.75;;;;;;;;;;4985204;28;20038;-80
2022/01/29 08:37:12;;;;;;;8.20;4.40;;;;;;;;;;4961860;28;20051;-79
2022/01/29 08:39:39;;;;;;;8.07;4.40;;;;;;;;;;4965610;28;20726;-81
2022/01/29 08:42:05;;;;;;;9.10;4.47;;;;;;;;;;4965544;28;20389;-84
2022/01/29 08:44:31;;;;;;;10.45;4.10;;;;;;;;;;4961207;28;20047;-87
2022/01/29 08:46:57;;;;;;;7.93;4.30;;;;;;;;;;4960624;28;20030;-85
2022/01/29 08:49:23;;;;;;;7.68;4.20;;;;;;;;;;4961640;28;20046;-85
2022/01/29 08:51:49;;;;;;;7.55;4.18;;;;;;;;;;4960124;28;20608;-87
2022/01/29 08:54:15;;;;;;;7.18;4.07;;;;;;;;;;4959501;28;20047;-80
2022/01/29 08:56:41;;;;;;;7.13;4.00;;;;;;;;;;4962992;28;20042;-84
2022/01/29 08:59:06;;;;;;;7.80;4.22;;;;;;;;;;4961722;28;20388;-83
2022/01/29 09:01:32;;;;;;;6.18;3.60;;;;;;;;;;4961252;28;20041;-85
2022/01/29 09:04:00;;;;;;;7.00;3.65;;;;;;;;;;4963129;28;20049;-85
2022/01/29 09:06:26;;;;;;;7.03;3.55;;;;;;;;;;4949958;28;20393;-84
2022/01/29 09:08:52;;;;;;;7.57;4.10;;;;;;;;;;4959618;28;20131;-81
2022/01/29 09:11:19;;;;;;;9.48;4.72;;;;;;;;;;4930979;29;20138;-80
2022/01/29 09:13:45;;;;;;;8.10;4.07;;;;;;;;;;4947600;29;20043;-80
2022/01/29 09:16:11;;;;;;;7.22;3.90;;;;;;;;;;4944078;28;20048;-80
2022/01/29 09:18:38;;;;;;;8.60;3.88;;;;;;;;;;4935118;28;20047;-82
2022/01/29 09:21:04;;;;;;;6.85;3.42;;;;;;;;;;4949648;28;20038;-82
2022/01/29 09:23:30;;;;;;;7.22;3.60;;;;;;;;;;4951198;28;20466;-83
2022/01/29 09:25:56;;;;;;;7.00;3.47;;;;;;;;;;4952063;28;20039;-81
2022/01/29 09:28:23;;;;;;;6.53;3.15;;;;;;;;;;4953463;28;20047;-83
2022/01/29 09:30:50;;;;;;;6.90;3.20;;;;;;;;;;4956874;28;20035;-83
2022/01/29 09:33:16;;;;;;;6.57;3.20;;;;;;;;;;4964501;28;20054;-83
2022/01/29 09:35:43;;;;;;;7.45;3.60;;;;;;;;;;4949269;28;20048;-83
2022/01/29 09:38:11;;;;;;;7.15;3.20;;;;;;;;;;4958902;28;20031;-82
2022/01/29 09:40:41;;;;;;;6.60;3.05;;;;;;;;;;4966351;28;20051;-82
2022/01/29 09:43:09;;;;;;;6.25;3.30;;;;;;;;;;4961122;28;20071;-82
2022/01/29 09:45:35;;;;;;;6.07;3.10;;;;;;;;;;4965356;28;20561;-82
2022/01/29 09:48:02;;;;;;;6.65;3.47;;;;;;;;;;4963898;28;20061;-81
2022/01/29 09:50:34;;;;;;;5.95;3.20;;;;;;;;;;4948861;28;20047;-81
2022/01/29 09:53:00;;;;;;;5.32;2.70;;;;;;;;;;4964732;28;20039;-81
2022/01/29 09:55:26;;;;;;;5.35;2.55;;;;;;;;;;4965477;28;20054;-82
2022/01/29 09:57:53;;;;;;;5.18;2.88;;;;;;;;;;4965095;28;20047;-84
2022/01/29 10:00:19;;;;;;;4.95;2.78;;;;;;;;;;4965771;28;20046;-81
2022/01/29 10:03:11;;;;;;;6.32;2.67;;;;;;;;;;4964731;28;20050;-82
2022/01/29 10:05:44;;;;;;;4.97;2.70;;;;;;;;;;4964520;28;20042;-81
2022/01/29 10:08:10;;;;;;;6.28;2.97;;;;;;;;;;4962925;28;20054;-81
2022/01/29 10:10:41;;;;;;;5.68;2.47;;;;;;;;;;4962168;28;20053;-80
2022/01/29 10:13:25;;;;;;;4.47;2.33;;;;;;;;;;4964951;28;20055;-80
2022/01/29 10:16:02;;;;;;;4.55;2.30;;;;;;;;;;4965585;28;20034;-81
2022/01/29 10:18:29;;;;;;;5.15;2.70;;;;;;;;;;4965564;28;20467;-80
2022/01/29 10:21:10;;;;;;;4.97;2.75;;;;;;;;;;4964643;28;20511;-80
2022/01/29 10:23:36;;;;;;;;;;;;;;;;;;4965633;28;20050;-79
2022/01/29 10:26:04;;;;;;;4.22;2.30;;;;;;;;;;4964638;28;20488;-80
2022/01/29 10:28:31;;;;;;;5.15;2.53;;;;;;;;;;4951967;28;20040;-79
2022/01/29 10:31:00;;;;;;;4.22;2.40;;;;;;;;;;4939921;29;20051;-79
2022/01/29 10:33:37;;;;;;;4.00;2.20;;;;;;;;;;4925000;29;20047;-78
2022/01/29 10:36:17;;;;;;;6.25;2.78;;;;;;;;;;4902853;29;20493;-79
2022/01/29 10:38:43;;;;;;;4.63;2.45;;;;;;;;;;4942524;29;20604;-79
2022/01/29 10:41:13;;;;;;;4.43;2.50;;;;;;;;;;4934357;29;20058;-79
2022/01/29 10:44:00;;;;;;;5.47;2.90;;;;;;;;;;4921972;29;20047;-78
2022/01/29 10:46:32;;;;;;;4.30;2.30;;;;;;;;;;4942285;28;20119;-79
2022/01/29 10:49:01;;;;;;;3.72;2.03;;;;;;;;;;4940244;29;20040;-79
2022/01/29 10:51:27;;;;;;;4.32;2.42;;;;;;;;;;4931015;29;21253;-79
2022/01/29 10:53:53;;;;;;;4.20;2.25;;;;;;;;;;4927776;29;20540;-78
2022/01/29 10:56:20;;;;;;;5.10;2.22;;;;;;;;;;4927809;29;20051;-79
2022/01/29 10:58:52;;;;;;;3.47;2.00;;;;;;;;;;4934471;28;20493;-79
2022/01/29 11:01:23;;;;;;;4.45;2.30;;;;;;;;;;4919790;29;20052;-78
2022/01/29 11:03:54;;;;;;;4.80;2.47;;;;;;;;;;4946151;29;20043;-78
2022/01/29 11:06:28;;;;;;;4.15;2.15;;;;;;;;;;4945249;29;20035;-78
2022/01/29 11:08:55;;;;;;;4.28;2.30;;;;;;;;;;4930578;28;20046;-78
2022/01/29 11:11:22;;;;;;;5.75;2.58;;;;;;;;;;4940097;29;20047;-78
2022/01/29 11:13:48;;;;;;;5.32;2.45;;;;;;;;;;4942396;28;20051;-78
2022/01/29 11:16:15;;;;;;;6.90;2.45;;;;;;;;;;4965266;28;20043;-78
2022/01/29 11:18:41;;;;;;;7.82;2.67;;;;;;;;;;4965995;28;20046;-79
2022/01/29 11:21:07;;;;;;;4.40;2.30;;;;;;;;;;4965727;28;20528;-78
2022/01/29 11:23:34;;;;;;;3.70;2.30;;;;;;;;;;4966297;28;20043;-78
2022/01/29 11:26:00;;;;;;;4.22;2.17;;;;;;;;;;4960672;28;20049;-79
2022/01/29 11:28:28;;;;;;;4.88;2.15;;;;;;;;;;4909270;29;20044;-80
2022/01/29 11:31:33;;;;;;;4.43;2.40;;;;;;;;;;4925788;29;20027;-80
2022/01/29 11:33:59;;;;;;;4.90;2.13;;;;;;;;;;4872497;29;21176;-80
2022/01/29 11:36:46;;;;;;;4.60;2.60;;;;;;;;;;4900767;29;20044;-79
2022/01/29 11:39:23;;;;;;;4.30;2.35;;;;;;;;;;4909715;29;20071;-80
2022/01/29 11:42:10;;;;;;;4.18;2.15;;;;;;;;;;4906777;29;20329;-79
2022/01/29 11:44:40;;;;;;;4.05;2.40;;;;;;;;;;4905775;29;20048;-80
2022/01/29 11:47:25;;;;;;;6.18;2.40;;;;;;;;;;4906126;29;20043;-79
2022/01/29 11:50:18;;;;;;;4.75;2.60;;;;;;;;;;4906189;29;20040;-79
2022/01/29 11:52:55;;;;;;;5.82;2.60;;;;;;;;;;4905181;29;20043;-78
2022/01/29 11:55:47;;;;;;;5.03;2.88;;;;;;;;;;4905289;29;20046;-79
2022/01/29 11:58:20;;;;;;;4.70;2.42;;;;;;;;;;4906793;29;20063;-79
2022/01/29 12:01:29;;;;;;;5.22;2.83;;;;;;;;;;4901883;29;20041;-79
2022/01/29 12:03:55;;;;;;;5.53;2.53;;;;;;;;;;4875473;29;21786;-79
2022/01/29 12:08:57;;;;;;;4.03;2.60;;;;;;;;;;4962650;28;20030;-80
2022/01/29 12:11:25;;;;;;;4.45;2.42;;;;;;;;;;4966408;28;20038;-79
2022/01/29 12:14:12;;;;;;;6.72;3.20;;;;;;;;;;4965239;28;20038;-79
2022/01/29 12:17:07;;;;;;;3.95;2.42;;;;;;;;;;4966237;28;20046;-79
2022/01/29 12:19:33;;;;;;;4.60;2.50;;;;;;;;;;4964687;28;20054;-79
2022/01/29 12:22:00;;;;;;;5.03;2.90;;;;;;;;;;4966727;28;20536;-80
2022/01/29 12:24:26;;;;;;;4.22;2.53;;;;;;;;;;4967686;28;20035;-79
2022/01/29 12:26:56;;;;;;;4.80;2.38;;;;;;;;;;4936599;28;20123;-79
2022/01/29 12:29:22;;;;;;;5.15;2.45;;;;;;;;;;4944756;29;20456;-79
2022/01/29 12:31:57;;;;;;;4.63;2.42;;;;;;;;;;4948826;28;20055;-78
2022/01/29 12:34:25;;;;;;;4.72;2.90;;;;;;;;;;4957667;28;20031;-80
2022/01/29 12:36:51;;;;;;;4.10;2.10;;;;;;;;;;4960451;28;20066;-79
2022/01/29 12:39:24;;;;;;;7.53;4.15;;;;;;;;;;4954443;28;20028;-80
2022/01/29 12:44:43;;;;;;;3.80;2.15;;;;;;;;;;4966278;28;20039;-79
2022/01/29 12:47:25;;;;;;;3.30;2.00;;;;;;;;;;4972802;28;20119;-80
2022/01/29 12:49:51;;;;;;;4.55;2.38;;;;;;;;;;4968021;28;20063;-79
2022/01/29 12:52:18;;;;;;;5.38;2.10;;;;;;;;;;4944163;28;20228;-79
2022/01/29 12:54:59;;;;;;;4.65;1.98;;;;;;;;;;4967799;28;20043;-79
2022/01/29 12:57:46;;;;;;;3.75;1.98;;;;;;;;;;4971868;28;20050;-79
2022/01/29 13:00:15;;;;;;;3.60;2.00;;;;;;;;;;4989295;28;20049;-79
2022/01/29 13:02:42;;;;;;;3.53;1.90;;;;;;;;;;4989447;28;20050;-78
2022/01/29 13:05:11;;;;;;;4.07;2.50;;;;;;;;;;4988010;28;20134;-78
2022/01/29 13:07:40;;;;;;;3.55;2.10;;;;;;;;;;4971879;28;20037;-79
2022/01/29 13:10:09;;;;;;;3.55;1.90;;;;;;;;;;4987061;28;20042;-80
2022/01/29 13:12:42;;;;;;;3.70;2.08;;;;;;;;;;4974373;28;20705;-80
2022/01/29 13:15:10;;;;;;;4.32;1.80;;;;;;;;;;4969500;28;20043;-81
2022/01/29 13:17:42;;;;;;;3.03;1.83;;;;;;;;;;4943157;28;20386;-80
2022/01/29 13:20:13;;;;;;;3.13;2.03;;;;;;;;;;4931722;29;20043;-82
2022/01/29 13:22:41;;;;;;;3.45;1.90;;;;;;;;;;4936774;29;20062;-78
2022/01/29 13:25:08;;;;;;;3.15;1.90;;;;;;;;;;4951378;29;20148;-79
2022/01/29 13:27:37;;;;;;;3.88;2.05;;;;;;;;;;4948473;29;20054;-80
2022/01/29 13:30:19;;;;;;;6.68;3.40;;;;;;;;;;4948183;29;20112;-80
2022/01/29 13:33:03;;;;;;;2.60;1.70;;;;;;;;;;4947784;29;20505;-79
2022/01/29 13:35:29;;;;;;;2.17;1.60;;;;;;;;;;4951816;28;20063;-79
2022/01/29 13:38:15;;;;;;;2.40;1.60;;;;;;;;;;4966443;28;20481;-79
2022/01/29 13:40:52;;;;;;;3.53;1.77;;;;;;;;;;4967411;28;20058;-79
2022/01/29 13:43:40;;;;;;;2.65;1.70;;;;;;;;;;4968904;28;20049;-80
2022/01/29 13:46:08;;;;;;;2.45;1.70;;;;;;;;;;4971615;28;20030;-79
2022/01/29 13:48:47;;;;;;;3.20;1.60;;;;;;;;;;4971678;28;20523;-80
2022/01/29 13:51:25;;;;;;;2.30;1.73;;;;;;;;;;4970825;28;20054;-80
2022/01/29 13:53:55;;;;;;;2.85;1.77;;;;;;;;;;4969318;28;20061;-80
2022/01/29 13:56:22;;;;;;;4.03;2.00;;;;;;;;;;4951612;28;20039;-80
2022/01/29 13:58:53;;;;;;;2.35;1.75;;;;;;;;;;4968719;28;20641;-81
2022/01/29 14:01:50;;;;;;;4.03;1.88;;;;;;;;;;4968628;28;20054;-80
2022/01/29 14:04:24;;;;;;;2.33;1.67;;;;;;;;;;4967554;28;20046;-79
2022/01/29 14:06:58;;;;;;;2.17;1.63;;;;;;;;;;4967544;28;20412;-80
2022/01/29 14:09:34;;;;;;;1.95;1.48;;;;;;;;;;4967760;28;20439;-80
2022/01/29 14:12:27;;;;;;;2.95;2.00;;;;;;;;;;4968343;28;20332;-80
2022/01/29 14:14:54;;;;;;;2.30;1.48;;;;;;;;;;4968286;28;20045;-80
2022/01/29 14:17:35;;;;;;;1.95;1.40;;;;;;;;;;4949856;28;20069;-80
2022/01/29 14:20:17;;;;;;;2.50;1.58;;;;;;;;;;4964312;28;20514;-80
2022/01/29 14:22:45;;;;;;;2.42;1.50;;;;;;;;;;4949692;28;20058;-80
2022/01/29 14:25:18;;;;;;;3.03;1.48;;;;;;;;;;4967276;28;20042;-79
2022/01/29 14:27:44;;;;;;;3.17;1.50;;;;;;;;;;4949931;28;20393;-79
2022/01/29 14:30:10;;;;;;;2.35;1.58;;;;;;;;;;4967751;28;20057;-79
2022/01/29 14:37:48;;;;;;;2.50;1.50;;;;;;;;;;5462804;23;20058;-81
2022/01/29 14:40:15;;;;;;;1.63;1.45;;;;;;;;;;4933370;28;20143;-79
2022/01/29 14:42:42;;;;;;;2.33;1.70;;;;;;;;;;4909890;29;20634;-78
2022/01/29 14:45:10;;;;;;;3.05;1.70;;;;;;;;;;4916976;29;20063;-78
2022/01/29 14:47:36;;;;;;;2.88;1.75;;;;;;;;;;4916765;28;20666;-78
2022/01/29 14:50:03;;;;;;;2.80;1.67;;;;;;;;;;4940534;29;20394;-79
2022/01/29 14:52:29;;;;;;;3.08;1.60;;;;;;;;;;4934285;29;20054;-78
2022/01/29 14:54:55;;;;;;;2.75;1.50;;;;;;;;;;4947053;28;20043;-80
2022/01/29 14:57:22;;;;;;;2.03;1.50;;;;;;;;;;4935533;29;20047;-79
2022/01/29 14:59:48;;;;;;;1.80;1.42;;;;;;;;;;4934106;28;20042;-80
2022/01/29 15:02:14;;;;;;;2.85;1.48;;;;;;;;;;4937545;28;20043;-79
2022/01/29 15:04:59;;;;;;;2.85;1.58;;;;;;;;;;4945217;28;20409;-80
2022/01/29 15:07:26;;;;;;;2.47;1.55;;;;;;;;;;4945253;28;20035;-79
2022/01/29 15:09:53;;;;;;;3.10;1.80;;;;;;;;;;4946094;28;20047;-79
2022/01/29 15:12:20;;;;;;;2.20;1.50;;;;;;;;;;4946955;28;20067;-81